createdAt,value
2022-10-17T00:00:14.471Z,8.20
2022-10-17T00:02:41.605Z,8.80
2022-10-17T00:05:09.013Z,8.82
2022-10-17T00:07:36.163Z,8.43
2022-10-17T00:10:03.385Z,8.15
2022-10-17T00:12:30.555Z,8.50
2022-10-17T00:14:57.697Z,8.32
2022-10-17T00:17:25.189Z,8.45
2022-10-17T00:19:52.517Z,9.30
2022-10-17T00:22:19.661Z,9.07
2022-10-17T00:24:46.808Z,8.50
2022-10-17T00:27:13.932Z,9.52
2022-10-17T00:29:41.167Z,8.55
2022-10-17T00:32:08.304Z,8.38
2022-10-17T00:34:35.476Z,9.85
2022-10-17T00:37:02.627Z,9.05
2022-10-17T00:39:29.797Z,10.30
2022-10-17T00:41:56.959Z,9.43
2022-10-17T00:44:30.242Z,9.70
2022-10-17T00:47:02.325Z,9.40
2022-10-17T00:49:31.509Z,10.57
2022-10-17T00:52:00.878Z,9.75
2022-10-17T00:54:30.605Z,10.13
2022-10-17T00:56:58.085Z,9.88
2022-10-17T00:59:25.706Z,11.45
2022-10-17T01:02:03.465Z,12.10
2022-10-17T01:04:30.743Z,10.85
2022-10-17T01:06:57.882Z,11.40
2022-10-17T01:09:25.834Z,10.88
2022-10-17T01:12:00.373Z,11.57
2022-10-17T01:14:33.617Z,10.33
2022-10-17T01:17:12.055Z,10.63
2022-10-17T01:19:59.466Z,11.35
2022-10-17T01:22:26.864Z,11.05
2022-10-17T01:25:06.608Z,11.77
2022-10-17T01:27:33.749Z,12.00
2022-10-17T01:30:27.117Z,11.20
2022-10-17T01:33:08.681Z,10.95
2022-10-17T01:35:41.764Z,10.15
2022-10-17T01:38:13.925Z,10.57
2022-10-17T01:40:45.944Z,12.07
2022-10-17T01:43:19.660Z,10.85
2022-10-17T01:46:02.638Z,11.25
2022-10-17T01:48:33.988Z,10.60
2022-10-17T01:51:03.813Z,10.23
2022-10-17T01:53:34.444Z,11.35
2022-10-17T01:56:03.001Z,10.27
2022-10-17T01:58:39.057Z,10.68
2022-10-17T02:01:07.666Z,10.60
2022-10-17T02:03:35.620Z,10.73
2022-10-17T02:06:03.077Z,10.50
2022-10-17T02:08:44.156Z,11.13
2022-10-17T02:11:15.851Z,10.50
2022-10-17T02:13:43.019Z,10.63
2022-10-17T02:16:14.120Z,10.52
2022-10-17T02:19:00.265Z,10.80
2022-10-17T02:21:33.439Z,10.43
2022-10-17T02:24:10.575Z,11.57
2022-10-17T02:26:40.521Z,10.48
2022-10-17T02:29:16.204Z,11.32
2022-10-17T02:31:49.497Z,12.55
2022-10-17T02:34:22.360Z,11.88
2022-10-17T02:36:54.608Z,12.00
2022-10-17T02:39:23.033Z,11.52
2022-10-17T02:41:51.795Z,11.60
2022-10-17T02:44:19.481Z,11.82
2022-10-17T02:46:53.063Z,11.98
2022-10-17T02:49:25.633Z,10.85
2022-10-17T02:52:09.158Z,11.45
2022-10-17T02:54:39.097Z,12.63
2022-10-17T02:57:06.200Z,11.57
2022-10-17T03:02:07.171Z,12.02
2022-10-17T03:04:34.993Z,11.52
2022-10-17T03:07:02.155Z,11.70
2022-10-17T03:09:29.598Z,13.13
2022-10-17T03:11:56.751Z,12.48
2022-10-17T03:14:23.895Z,13.60
2022-10-17T03:16:51.031Z,13.25
2022-10-17T03:19:18.233Z,14.10
2022-10-17T03:21:45.397Z,13.65
2022-10-17T03:24:12.595Z,12.57
2022-10-17T03:26:39.932Z,13.85
2022-10-17T03:29:07.132Z,14.35
2022-10-17T03:31:34.300Z,14.07
2022-10-17T03:34:02.964Z,14.10
2022-10-17T03:36:30.085Z,13.57
2022-10-17T03:38:57.228Z,13.60
2022-10-17T03:41:24.379Z,13.63
2022-10-17T03:43:53.802Z,14.30
2022-10-17T03:46:21.007Z,14.20
2022-10-17T03:48:48.141Z,14.27
2022-10-17T03:51:15.658Z,15.35
2022-10-17T03:53:42.864Z,15.43
2022-10-17T03:56:12.527Z,15.63
2022-10-17T03:58:40.408Z,15.05
2022-10-17T04:01:12.368Z,16.35
2022-10-17T04:03:39.895Z,15.77
2022-10-17T04:06:07.161Z,15.88
2022-10-17T04:08:34.701Z,15.43
2022-10-17T04:11:02.717Z,16.67
2022-10-17T04:13:30.297Z,17.38
2022-10-17T04:16:01.565Z,16.33
2022-10-17T04:18:28.722Z,17.60
2022-10-17T04:20:55.892Z,18.50
2022-10-17T04:23:23.022Z,18.17
2022-10-17T04:25:50.346Z,17.13
2022-10-17T04:28:17.536Z,17.17
2022-10-17T04:30:45.628Z,16.95
2022-10-17T04:33:12.995Z,17.80
2022-10-17T04:35:40.166Z,17.98
2022-10-17T04:38:07.329Z,17.50
2022-10-17T04:40:34.471Z,17.20
2022-10-17T04:43:01.641Z,17.90
2022-10-17T04:45:28.807Z,18.27
2022-10-17T04:47:55.947Z,17.80
2022-10-17T04:50:23.126Z,19.25
2022-10-17T04:52:50.253Z,19.02
2022-10-17T04:55:17.430Z,19.92
2022-10-17T04:57:44.586Z,18.27
2022-10-17T05:00:12.106Z,19.65
2022-10-17T05:02:39.261Z,19.63
2022-10-17T05:05:06.639Z,19.88
2022-10-17T05:07:33.831Z,19.50
2022-10-17T05:10:00.959Z,18.48
2022-10-17T05:12:28.397Z,20.48
2022-10-17T05:14:55.702Z,20.02
2022-10-17T05:17:22.820Z,20.75
2022-10-17T05:19:49.956Z,20.20
2022-10-17T05:22:17.102Z,19.25
2022-10-17T05:24:44.378Z,19.38
2022-10-17T05:27:11.492Z,20.67
2022-10-17T05:29:39.753Z,20.38
2022-10-17T05:32:06.905Z,20.35
2022-10-17T05:34:34.997Z,19.63
2022-10-17T05:37:02.230Z,21.15
2022-10-17T05:39:29.388Z,19.58
2022-10-17T05:41:56.501Z,19.70
2022-10-17T05:44:23.689Z,19.95
2022-10-17T05:46:50.835Z,21.13
2022-10-17T05:49:31.917Z,20.65
2022-10-17T05:52:05.237Z,18.48
2022-10-17T05:54:32.369Z,19.20
2022-10-17T05:56:59.516Z,19.50
2022-10-17T05:59:27.509Z,18.50
2022-10-17T06:01:55.277Z,18.73
2022-10-17T06:04:22.525Z,19.42
2022-10-17T06:06:49.765Z,18.42
2022-10-17T06:09:16.918Z,19.23
2022-10-17T06:11:44.061Z,19.23
2022-10-17T06:14:11.294Z,18.95
2022-10-17T06:16:38.425Z,18.63
2022-10-17T06:19:05.632Z,18.67
2022-10-17T06:21:36.466Z,17.95
2022-10-17T06:24:03.625Z,18.92
2022-10-17T06:26:30.789Z,18.55
2022-10-17T06:28:57.978Z,19.15
2022-10-17T06:31:25.215Z,19.38
2022-10-17T06:33:52.335Z,19.60
2022-10-17T06:36:19.697Z,19.10
2022-10-17T06:38:46.846Z,19.10
2022-10-17T06:41:15.233Z,20.63
2022-10-17T06:43:45.629Z,20.48
2022-10-17T06:46:13.460Z,19.23
2022-10-17T06:48:40.599Z,19.00
2022-10-17T06:51:09.875Z,19.38
2022-10-17T06:53:37.029Z,18.73
2022-10-17T06:56:05.194Z,18.08
2022-10-17T06:58:33.472Z,18.83
2022-10-17T07:01:01.464Z,18.65
2022-10-17T07:03:28.870Z,17.15
2022-10-17T07:05:56.373Z,18.42
2022-10-17T07:08:23.916Z,18.48
2022-10-17T07:10:51.287Z,17.77
2022-10-17T07:13:18.931Z,17.77
2022-10-17T07:15:46.535Z,17.05
2022-10-17T07:18:14.210Z,17.13
2022-10-17T07:20:41.406Z,16.85
2022-10-17T07:23:08.697Z,16.00
2022-10-17T07:25:40.032Z,15.02
2022-10-17T07:28:07.543Z,15.18
2022-10-17T07:30:34.768Z,14.68
2022-10-17T07:33:04.869Z,14.55
2022-10-17T07:35:32.039Z,14.45
2022-10-17T07:37:59.200Z,13.68
2022-10-17T07:40:26.345Z,12.60
2022-10-17T07:42:53.595Z,11.90
2022-10-17T07:45:20.794Z,12.18
2022-10-17T07:47:47.933Z,11.45
2022-10-17T07:50:15.107Z,11.65
2022-10-17T07:52:43.344Z,11.13
2022-10-17T07:55:10.750Z,10.68
2022-10-17T07:57:38.035Z,10.13
2022-10-17T08:00:05.485Z,10.88
2022-10-17T08:02:32.941Z,9.98
2022-10-17T08:05:03.229Z,9.25
2022-10-17T08:07:31.091Z,9.95
2022-10-17T08:09:58.467Z,9.93
2022-10-17T08:12:26.325Z,9.70
2022-10-17T08:14:53.548Z,8.65
2022-10-17T08:17:21.891Z,8.57
2022-10-17T08:19:49.027Z,8.52
2022-10-17T08:22:16.375Z,7.88
2022-10-17T08:24:44.525Z,7.82
2022-10-17T08:27:13.498Z,7.97
2022-10-17T08:29:41.296Z,7.30
2022-10-17T08:32:10.014Z,7.50
2022-10-17T08:34:37.425Z,8.10
2022-10-17T08:37:04.630Z,7.30
2022-10-17T08:39:31.822Z,7.57
2022-10-17T08:42:02.021Z,7.28
2022-10-17T08:44:47.659Z,7.32
2022-10-17T08:47:16.434Z,7.15
2022-10-17T08:49:46.886Z,7.10
2022-10-17T08:52:34.372Z,7.32
2022-10-17T08:55:01.508Z,7.28
2022-10-17T08:57:29.393Z,6.95
2022-10-17T08:59:57.167Z,6.55
2022-10-17T09:02:43.269Z,7.53
2022-10-17T09:05:10.471Z,7.25
2022-10-17T09:07:44.218Z,8.13
2022-10-17T09:10:11.625Z,7.20
2022-10-17T09:12:44.765Z,6.72
2022-10-17T09:15:35.424Z,7.50
2022-10-17T09:18:02.550Z,7.63
2022-10-17T09:20:34.739Z,7.47
2022-10-17T09:23:04.833Z,7.80
2022-10-17T09:25:35.757Z,6.90
2022-10-17T09:28:12.059Z,7.32
2022-10-17T09:30:45.645Z,7.13
2022-10-17T09:33:35.533Z,7.43
2022-10-17T09:36:05.079Z,7.47
2022-10-17T09:38:55.412Z,7.53
2022-10-17T09:41:45.494Z,7.88
2022-10-17T09:44:17.859Z,7.30
2022-10-17T09:46:58.125Z,7.47
2022-10-17T09:49:38.878Z,8.35
2022-10-17T09:52:07.505Z,6.85
2022-10-17T09:54:44.955Z,8.45
2022-10-17T09:57:12.651Z,7.40
2022-10-17T09:59:40.967Z,7.38
2022-10-17T10:02:18.651Z,7.80
2022-10-17T10:05:05.194Z,6.97
2022-10-17T10:07:35.025Z,7.78
2022-10-17T10:10:03.596Z,7.43
2022-10-17T10:12:35.660Z,6.75
2022-10-17T10:15:03.166Z,7.32
2022-10-17T10:17:38.282Z,7.65
2022-10-17T10:20:25.333Z,7.78
2022-10-17T10:23:11.381Z,8.52
2022-10-17T10:25:38.641Z,8.40
2022-10-17T10:28:11.261Z,7.65
2022-10-17T10:30:39.969Z,7.30
2022-10-17T10:33:07.456Z,7.30
2022-10-17T10:35:35.849Z,7.95
2022-10-17T10:38:04.668Z,8.07
2022-10-17T10:40:33.518Z,8.63
2022-10-17T10:43:05.474Z,8.55
2022-10-17T10:45:54.107Z,8.07
2022-10-17T10:48:24.377Z,8.80
2022-10-17T10:50:54.738Z,8.93
2022-10-17T10:53:35.366Z,10.35
2022-10-17T10:56:06.934Z,9.55
2022-10-17T10:58:40.250Z,10.13
2022-10-17T11:01:20.277Z,10.50
2022-10-17T11:03:54.758Z,11.73
2022-10-17T11:06:28.355Z,11.38
2022-10-17T11:09:13.869Z,11.32
2022-10-17T11:11:51.257Z,11.90
2022-10-17T11:14:22.121Z,12.75
2022-10-17T11:17:08.189Z,12.30
2022-10-17T11:19:51.825Z,12.30
2022-10-17T11:22:28.188Z,12.90
2022-10-17T11:25:15.425Z,13.15
2022-10-17T11:27:47.218Z,13.95
2022-10-17T11:30:16.227Z,13.30
2022-10-17T11:32:52.095Z,14.07
2022-10-17T11:35:19.267Z,14.18
2022-10-17T11:37:49.293Z,13.85
2022-10-17T11:40:24.481Z,14.48
2022-10-17T11:45:20.817Z,13.82
2022-10-17T11:47:51.135Z,14.45
2022-10-17T11:53:25.668Z,13.07
2022-10-17T11:55:54.493Z,12.93
2022-10-17T11:58:40.359Z,14.55
2022-10-17T12:03:47.926Z,13.55
2022-10-17T12:06:24.765Z,13.82
2022-10-17T12:09:02.479Z,14.07
2022-10-17T12:11:34.696Z,15.40
2022-10-17T12:14:05.746Z,14.13
2022-10-17T12:16:36.241Z,13.80
2022-10-17T12:19:06.276Z,12.85
2022-10-17T12:21:52.418Z,13.55
2022-10-17T12:24:28.732Z,11.93
2022-10-17T12:26:57.097Z,12.75
2022-10-17T12:29:29.465Z,12.50
2022-10-17T12:32:10.682Z,11.90
2022-10-17T12:34:38.650Z,11.35
2022-10-17T12:37:05.991Z,9.82
2022-10-17T12:39:36.222Z,11.02
2022-10-17T12:42:03.389Z,10.38
2022-10-17T12:44:34.948Z,10.73
2022-10-17T12:47:09.496Z,10.25
2022-10-17T12:49:39.906Z,10.33
2022-10-17T12:52:25.794Z,10.23
2022-10-17T12:57:39.190Z,10.25
2022-10-17T13:00:15.234Z,10.40
2022-10-17T13:02:42.734Z,9.60
2022-10-17T13:05:14.670Z,9.90
2022-10-17T13:07:43.278Z,9.85
2022-10-17T13:13:01.559Z,9.50
2022-10-17T13:15:28.748Z,8.98
2022-10-17T13:17:56.677Z,9.82
2022-10-17T13:20:29.129Z,9.00
2022-10-17T13:22:58.941Z,9.65
2022-10-17T13:25:26.933Z,8.60
2022-10-17T13:28:04.674Z,8.82
2022-10-17T13:30:35.573Z,8.00
2022-10-17T13:33:03.450Z,8.10
2022-10-17T13:38:29.560Z,6.77
2022-10-17T13:41:02.009Z,7.32
2022-10-17T13:43:38.921Z,7.47
2022-10-17T13:46:25.378Z,6.80
2022-10-17T13:48:53.431Z,6.90
2022-10-17T13:51:20.794Z,7.25
2022-10-17T13:53:48.005Z,6.70
2022-10-17T13:56:28.459Z,6.75
2022-10-17T13:58:57.920Z,7.28
2022-10-17T14:01:26.552Z,6.70
2022-10-17T14:04:07.180Z,6.88
2022-10-17T14:06:35.745Z,6.75
2022-10-17T14:09:05.706Z,6.75
2022-10-17T14:11:34.478Z,7.03
2022-10-17T14:14:02.374Z,6.30
2022-10-17T14:16:34.970Z,6.57
2022-10-17T14:19:02.174Z,6.70
2022-10-17T14:21:40.925Z,6.95
2022-10-17T14:24:20.541Z,5.97
2022-10-17T14:26:59.427Z,6.72
2022-10-17T14:29:29.633Z,6.80
2022-10-17T14:32:04.734Z,6.07
2022-10-17T14:34:34.041Z,6.30
2022-10-17T14:37:01.672Z,6.50
2022-10-17T14:39:29.325Z,6.78
2022-10-17T14:41:58.712Z,7.70
2022-10-17T14:44:36.374Z,7.40
2022-10-17T14:47:30.165Z,7.90
2022-10-17T14:49:52.957Z,7.72
2022-10-17T14:52:20.053Z,6.88
2022-10-17T14:54:50.907Z,5.38
2022-10-17T14:57:19.298Z,4.75
2022-10-17T14:59:55.463Z,4.18
2022-10-17T15:02:24.315Z,3.30
2022-10-17T15:04:51.490Z,3.35
2022-10-17T15:07:19.096Z,3.83
2022-10-17T15:09:47.880Z,3.47
2022-10-17T15:12:19.670Z,4.10
2022-10-17T15:14:50.783Z,3.90
2022-10-17T15:17:21.111Z,3.60
2022-10-17T15:19:48.986Z,4.50
2022-10-17T15:22:16.452Z,4.13
2022-10-17T15:24:43.733Z,4.18
2022-10-17T15:27:21.376Z,4.22
2022-10-17T15:29:49.016Z,4.35
2022-10-17T15:32:16.624Z,3.72
2022-10-17T15:34:43.958Z,3.20
2022-10-17T15:37:34.141Z,3.20
2022-10-17T15:40:01.471Z,2.33
2022-10-17T15:42:30.204Z,2.50
2022-10-17T15:44:57.917Z,2.55
2022-10-17T15:47:29.627Z,2.92
2022-10-17T15:49:57.305Z,2.80
2022-10-17T15:52:24.520Z,3.13
2022-10-17T15:54:51.935Z,3.55
2022-10-17T15:57:23.558Z,3.60
2022-10-17T15:59:51.812Z,3.80
2022-10-17T16:02:20.335Z,4.05
2022-10-17T16:04:47.962Z,3.78
2022-10-17T16:07:15.461Z,3.42
2022-10-17T16:09:42.649Z,3.10
2022-10-17T16:12:17.196Z,2.90
2022-10-17T16:14:44.377Z,3.80
2022-10-17T16:17:17.986Z,3.78
2022-10-17T16:19:45.304Z,3.45
2022-10-17T16:22:21.566Z,3.42
2022-10-17T16:24:48.731Z,3.28
2022-10-17T16:27:16.000Z,2.78
2022-10-17T16:29:43.202Z,3.20
2022-10-17T16:32:10.834Z,2.53
2022-10-17T16:34:38.016Z,3.00
2022-10-17T16:37:05.159Z,3.08
2022-10-17T16:39:32.346Z,3.30
2022-10-17T16:41:59.493Z,3.55
2022-10-17T16:44:26.813Z,3.90
2022-10-17T16:46:53.940Z,4.35
2022-10-17T16:49:21.097Z,4.28
2022-10-17T16:51:48.220Z,4.28
2022-10-17T16:54:15.356Z,4.13
2022-10-17T16:56:42.629Z,4.10
2022-10-17T16:59:11.985Z,4.80
2022-10-17T17:01:39.260Z,5.40
2022-10-17T17:04:06.461Z,7.30
2022-10-17T17:06:33.687Z,6.15
2022-10-17T17:09:00.880Z,6.05
2022-10-17T17:11:28.914Z,5.63
2022-10-17T17:13:57.517Z,5.72
2022-10-17T17:16:25.373Z,5.55
2022-10-17T17:19:17.093Z,5.35
2022-10-17T17:21:51.100Z,4.63
2022-10-17T17:24:20.993Z,4.90
2022-10-17T17:26:51.748Z,5.57
2022-10-17T17:29:18.914Z,6.20
2022-10-17T17:31:46.100Z,6.25
2022-10-17T17:34:17.160Z,7.25
2022-10-17T17:36:45.450Z,7.72
2022-10-17T17:39:13.678Z,5.90
2022-10-17T17:41:41.816Z,7.10
2022-10-17T17:44:12.400Z,6.72
2022-10-17T17:46:43.627Z,6.47
2022-10-17T17:49:11.644Z,7.07
2022-10-17T17:51:41.457Z,7.80
2022-10-17T17:54:11.623Z,7.38
2022-10-17T17:56:39.144Z,7.32
2022-10-17T17:59:06.324Z,7.97
2022-10-17T18:01:38.718Z,7.65
2022-10-17T18:04:08.434Z,7.72
2022-10-17T18:06:36.203Z,8.50
2022-10-17T18:09:04.125Z,8.00
2022-10-17T18:11:31.739Z,7.72
2022-10-17T18:14:00.612Z,8.68
2022-10-17T18:16:28.816Z,9.55
2022-10-17T18:18:56.462Z,9.00
2022-10-17T18:21:23.720Z,8.25
2022-10-17T18:23:51.962Z,7.80
2022-10-17T18:26:19.298Z,8.15
2022-10-17T18:28:46.644Z,8.50
2022-10-17T18:31:15.648Z,8.48
2022-10-17T18:33:44.624Z,8.40
2022-10-17T18:36:12.953Z,8.25
2022-10-17T18:38:40.172Z,8.23
2022-10-17T18:41:08.579Z,8.23
2022-10-17T18:43:37.049Z,8.95
2022-10-17T18:46:12.279Z,9.07
2022-10-17T18:48:42.685Z,9.32
2022-10-17T18:51:09.894Z,10.00
2022-10-17T18:53:40.084Z,10.20
2022-10-17T18:56:07.426Z,10.07
2022-10-17T18:58:34.572Z,10.15
2022-10-17T19:01:06.073Z,8.90
2022-10-17T19:03:33.317Z,10.18
2022-10-17T19:06:04.350Z,11.02
2022-10-17T19:08:31.491Z,11.25
2022-10-17T19:10:58.704Z,12.52
2022-10-17T19:13:25.868Z,12.30
2022-10-17T19:15:53.021Z,12.25
2022-10-17T19:18:20.306Z,12.18
2022-10-17T19:20:47.517Z,13.20
2022-10-17T19:23:14.744Z,14.10
2022-10-17T19:25:41.941Z,14.23
2022-10-17T19:28:09.148Z,14.85
2022-10-17T19:30:36.273Z,13.60
2022-10-17T19:33:03.589Z,15.75
2022-10-17T19:35:30.726Z,16.10
2022-10-17T19:37:57.905Z,16.52
2022-10-17T19:40:25.076Z,16.95
2022-10-17T19:42:52.391Z,15.88
2022-10-17T19:45:19.511Z,16.60
2022-10-17T19:47:46.745Z,16.92
2022-10-17T19:50:14.000Z,16.98
2022-10-17T19:52:41.122Z,16.40
2022-10-17T19:55:08.470Z,17.35
2022-10-17T19:57:36.596Z,18.00
2022-10-17T20:00:04.785Z,19.88
2022-10-17T20:02:32.358Z,21.05
2022-10-17T20:05:17.547Z,22.45
2022-10-17T20:07:45.865Z,24.00
2022-10-17T20:10:13.025Z,22.42
2022-10-17T20:12:40.149Z,23.35
2022-10-17T20:15:07.442Z,22.85
2022-10-17T20:20:08.783Z,23.92
2022-10-17T20:22:36.201Z,25.02
2022-10-17T20:25:03.369Z,25.13
2022-10-17T20:27:30.566Z,24.88
2022-10-17T20:30:01.688Z,25.40
2022-10-17T20:32:29.274Z,26.40
2022-10-17T20:34:56.613Z,27.92
2022-10-17T20:37:24.177Z,28.88
2022-10-17T20:40:04.950Z,28.40
2022-10-17T20:42:38.513Z,28.85
2022-10-17T20:45:06.195Z,31.02
2022-10-17T20:47:46.111Z,30.02
2022-10-17T20:50:15.431Z,28.73
2022-10-17T20:52:42.584Z,28.15
2022-10-17T20:55:09.813Z,30.55
2022-10-17T20:57:37.039Z,30.60
2022-10-17T21:00:05.221Z,31.80
2022-10-17T21:02:33.124Z,29.73
2022-10-17T21:05:00.255Z,29.77
2022-10-17T21:07:27.598Z,30.73
2022-10-17T21:09:54.998Z,31.38
2022-10-17T21:12:31.419Z,31.60
2022-10-17T21:15:10.630Z,28.83
2022-10-17T21:17:37.836Z,30.35
2022-10-17T21:20:05.228Z,30.10
2022-10-17T21:22:34.192Z,29.48
2022-10-17T21:25:01.383Z,29.77
2022-10-17T21:27:28.540Z,30.35
2022-10-17T21:29:55.724Z,32.10
2022-10-17T21:32:39.418Z,30.20
2022-10-17T21:35:10.259Z,30.52
2022-10-17T21:37:37.473Z,33.33
2022-10-17T21:40:05.272Z,31.73
2022-10-17T21:42:32.947Z,32.72
2022-10-17T21:45:00.323Z,34.67
2022-10-17T21:47:27.757Z,34.90
2022-10-17T21:49:54.932Z,33.65
2022-10-17T21:52:22.074Z,33.35
2022-10-17T21:54:49.240Z,36.20
2022-10-17T21:59:44.649Z,38.38
2022-10-17T22:02:11.785Z,39.78
2022-10-17T22:04:38.948Z,38.83
2022-10-17T22:07:06.083Z,37.83
2022-10-17T22:09:33.248Z,38.33
2022-10-17T22:12:00.379Z,37.33
2022-10-17T22:14:28.148Z,40.35
2022-10-17T22:16:55.679Z,38.92
2022-10-17T22:19:24.173Z,40.38
2022-10-17T22:21:51.737Z,40.72
2022-10-17T22:26:52.017Z,40.75
2022-10-17T22:29:19.195Z,40.30
2022-10-17T22:31:46.509Z,40.22
2022-10-17T22:34:14.716Z,39.08
2022-10-17T22:36:42.263Z,41.67
2022-10-17T22:39:09.401Z,38.30
2022-10-17T22:41:36.626Z,39.40
2022-10-17T22:44:04.026Z,38.72
2022-10-17T22:46:31.229Z,39.38
2022-10-17T22:48:58.401Z,40.22
2022-10-17T22:51:25.799Z,39.60
2022-10-17T22:53:52.959Z,39.22
2022-10-17T22:56:21.527Z,41.05
2022-10-17T22:58:49.132Z,39.80
2022-10-17T23:01:18.506Z,39.63
2022-10-17T23:03:46.182Z,37.88
2022-10-17T23:06:13.442Z,37.45
2022-10-17T23:08:40.973Z,36.75
2022-10-17T23:11:08.673Z,39.10
2022-10-17T23:13:37.234Z,38.67
2022-10-17T23:16:04.543Z,39.05
2022-10-17T23:21:03.733Z,38.88
2022-10-17T23:23:30.963Z,39.08
2022-10-17T23:26:04.493Z,38.10
2022-10-17T23:28:33.678Z,38.03
2022-10-17T23:31:08.559Z,36.63
2022-10-17T23:33:35.727Z,37.63
2022-10-17T23:36:05.947Z,36.83
2022-10-17T23:38:33.073Z,37.78
2022-10-17T23:41:00.235Z,38.10
2022-10-17T23:43:27.581Z,34.45
2022-10-17T23:45:54.781Z,38.97
2022-10-17T23:48:22.857Z,37.13
2022-10-17T23:50:50.203Z,38.92
2022-10-17T23:53:17.366Z,38.97
2022-10-17T23:55:44.494Z,40.53
2022-10-17T23:58:11.761Z,39.22
